首页
METAR-TAF:

METAR-TAF

机场 :

潘泰萊里亞, 意大利

纬度: 36-49N, 经度: 011-58E, 海拔: 191米

当前天气观测

该预报发布于1小时和18分钟前的07:50 UTC
风速3节,风向
温度 20°C
湿度 73%
气压 1021 hPa
能见度10公里或以上
少量云层高于3000英尺

METAR: LICG 170750Z 35003KT 9999 FEW030 20/15 Q1021

时间: 11:08 (09:08 UTC)

预报

该预报发布于1小时和8分钟前的08:00 UTC
预报有效从17日的 09点(UTC)到 17日的 18点(UTC)
风速6节,风向北转西北
能見度: 8000
少量云层高于2000英尺

TAF: LICG 170800Z 1709/1718 34006KT 8000 FEW020

超过4000个机场的气象观测和天气预报(METAR&TAF报告)。

可查询的气象台以黄色和红色小点在地图上表示。

将鼠标移到小点上方,可查看气象台名称。

然后点击查看天气观测和预报。

如需切换地图:点击带黑十字的绿色按钮放大地图;点击带横线的绿色按钮缩小地图;或者点击绿色箭头查看邻近地区的地图。


METAR-TAF: